sensor_id;sensor_type;location;lat;lon;timestamp;pressure;altitude;pressure_sealevel;temperature;humidity
17309;BME280;8772;42.804;23.426;2023-03-23T00:00:31;74334.88;;;-140.58;100.00
17309;BME280;8772;42.804;23.426;2023-03-23T00:02:58;74355.38;;;-140.58;100.00
17309;BME280;8772;42.804;23.426;2023-03-23T00:05:26;74380.00;;;-140.58;100.00
17309;BME280;8772;42.804;23.426;2023-03-23T00:07:54;74371.81;;;-140.58;100.00
17309;BME280;8772;42.804;23.426;2023-03-23T00:10:23;74404.63;;;-140.58;100.00
17309;BME280;8772;42.804;23.426;2023-03-23T00:12:49;74410.78;;;-140.58;100.00
17309;BME280;8772;42.804;23.426;2023-03-23T00:15:16;74396.41;;;-140.58;100.00
17309;BME280;8772;42.804;23.426;2023-03-23T00:17:43;74384.13;;;-140.58;100.00
17309;BME280;8772;42.804;23.426;2023-03-23T00:20:10;74388.22;;;-140.58;100.00
17309;BME280;8772;42.804;23.426;2023-03-23T00:22:38;74373.84;;;-140.58;100.00
17309;BME280;8772;42.804;23.426;2023-03-23T00:25:07;74384.13;;;-140.58;100.00
17309;BME280;8772;42.804;23.426;2023-03-23T00:27:35;74375.91;;;-140.58;100.00
17309;BME280;8772;42.804;23.426;2023-03-23T00:30:04;74380.00;;;-140.58;100.00
17309;BME280;8772;42.804;23.426;2023-03-23T00:32:31;74375.91;;;-140.58;100.00
17309;BME280;8772;42.804;23.426;2023-03-23T00:34:58;74380.00;;;-140.58;100.00
17309;BME280;8772;42.804;23.426;2023-03-23T00:37:25;74388.22;;;-140.58;100.00
17309;BME280;8772;42.804;23.426;2023-03-23T00:39:52;74384.13;;;-140.58;100.00
17309;BME280;8772;42.804;23.426;2023-03-23T00:42:23;74371.81;;;-140.58;100.00
17309;BME280;8772;42.804;23.426;2023-03-23T00:44:52;74363.59;;;-140.58;100.00
17309;BME280;8772;42.804;23.426;2023-03-23T00:47:25;74367.69;;;-140.58;100.00
17309;BME280;8772;42.804;23.426;2023-03-23T00:49:52;74369.75;;;-140.58;100.00
17309;BME280;8772;42.804;23.426;2023-03-23T00:52:21;74375.91;;;-140.58;100.00
17309;BME280;8772;42.804;23.426;2023-03-23T00:54:49;74377.94;;;-140.58;100.00
17309;BME280;8772;42.804;23.426;2023-03-23T00:57:16;74375.91;;;-140.58;100.00
17309;BME280;8772;42.804;23.426;2023-03-23T00:59:43;74380.00;;;-140.58;100.00
17309;BME280;8772;42.804;23.426;2023-03-23T01:02:11;74373.84;;;-140.58;100.00
17309;BME280;8772;42.804;23.426;2023-03-23T01:08:00;74375.91;;;-140.58;100.00
17309;BME280;8772;42.804;23.426;2023-03-23T01:10:28;74367.69;;;-140.58;100.00
17309;BME280;8772;42.804;23.426;2023-03-23T01:12:58;74365.66;;;-140.58;100.00
17309;BME280;8772;42.804;23.426;2023-03-23T01:15:25;74377.94;;;-140.58;100.00
17309;BME280;8772;42.804;23.426;2023-03-23T01:17:54;74371.81;;;-140.58;100.00
17309;BME280;8772;42.804;23.426;2023-03-23T01:20:21;74396.41;;;-140.58;100.00
17309;BME280;8772;42.804;23.426;2023-03-23T01:22:48;74408.72;;;-140.58;100.00
17309;BME280;8772;42.804;23.426;2023-03-23T01:25:15;74425.16;;;-140.58;100.00
17309;BME280;8772;42.804;23.426;2023-03-23T01:27:42;74425.16;;;-140.58;100.00
17309;BME280;8772;42.804;23.426;2023-03-23T01:30:11;74416.94;;;-140.58;100.00
17309;BME280;8772;42.804;23.426;2023-03-23T01:32:38;74412.84;;;-140.58;100.00
17309;BME280;8772;42.804;23.426;2023-03-23T01:35:07;74429.25;;;-140.58;100.00
17309;BME280;8772;42.804;23.426;2023-03-23T01:37:35;74431.31;;;-140.58;100.00
17309;BME280;8772;42.804;23.426;2023-03-23T01:40:02;74437.47;;;-140.58;100.00
17309;BME280;8772;42.804;23.426;2023-03-23T01:42:32;74416.94;;;-140.58;100.00
17309;BME280;8772;42.804;23.426;2023-03-23T01:45:26;74419.00;;;-140.58;100.00
17309;BME280;8772;42.804;23.426;2023-03-23T01:48:01;74423.09;;;-140.58;100.00
17309;BME280;8772;42.804;23.426;2023-03-23T01:50:36;74416.94;;;-140.58;100.00
17309;BME280;8772;42.804;23.426;2023-03-23T01:53:06;74404.63;;;-140.58;100.00
17309;BME280;8772;42.804;23.426;2023-03-23T01:55:36;74402.56;;;-140.58;100.00
17309;BME280;8772;42.804;23.426;2023-03-23T01:58:05;74404.63;;;-140.58;100.00
17309;BME280;8772;42.804;23.426;2023-03-23T02:00:33;74396.41;;;-140.58;100.00
17309;BME280;8772;42.804;23.426;2023-03-23T02:03:00;74412.84;;;-140.58;100.00
17309;BME280;8772;42.804;23.426;2023-03-23T02:05:32;74419.00;;;-140.58;100.00
17309;BME280;8772;42.804;23.426;2023-03-23T02:08:02;74423.09;;;-140.58;100.00
17309;BME280;8772;42.804;23.426;2023-03-23T02:10:31;74416.94;;;-140.58;100.00
17309;BME280;8772;42.804;23.426;2023-03-23T02:13:00;74412.84;;;-140.58;100.00
17309;BME280;8772;42.804;23.426;2023-03-23T02:15:36;74404.63;;;-140.58;100.00
17309;BME280;8772;42.804;23.426;2023-03-23T02:18:08;74404.63;;;-140.58;100.00
17309;BME280;8772;42.804;23.426;2023-03-23T02:20:53;74408.72;;;-140.58;100.00
17309;BME280;8772;42.804;23.426;2023-03-23T02:26:33;74414.88;;;-140.58;100.00
17309;BME280;8772;42.804;23.426;2023-03-23T02:32:30;74457.97;;;-140.58;100.00
17309;BME280;8772;42.804;23.426;2023-03-23T02:35:08;74472.34;;;-140.58;100.00
17309;BME280;8772;42.804;23.426;2023-03-23T02:37:40;74476.44;;;-140.58;100.00
17309;BME280;8772;42.804;23.426;2023-03-23T02:40:15;74482.59;;;-140.58;100.00
17309;BME280;8772;42.804;23.426;2023-03-23T02:42:47;74523.63;;;-140.58;100.00
17309;BME280;8772;42.804;23.426;2023-03-23T02:45:16;74494.91;;;-140.58;100.00
17309;BME280;8772;42.804;23.426;2023-03-23T02:47:44;74482.59;;;-140.58;100.00
17309;BME280;8772;42.804;23.426;2023-03-23T02:50:16;74486.69;;;-140.58;100.00
17309;BME280;8772;42.804;23.426;2023-03-23T02:52:45;74470.28;;;-140.58;100.00
17309;BME280;8772;42.804;23.426;2023-03-23T02:55:13;74484.66;;;-140.58;100.00
17309;BME280;8772;42.804;23.426;2023-03-23T02:57:41;74482.59;;;-140.58;100.00
17309;BME280;8772;42.804;23.426;2023-03-23T03:00:13;74494.91;;;-140.58;100.00
17309;BME280;8772;42.804;23.426;2023-03-23T03:02:43;74482.59;;;-140.58;100.00
17309;BME280;8772;42.804;23.426;2023-03-23T03:05:22;74474.38;;;-140.58;100.00
17309;BME280;8772;42.804;23.426;2023-03-23T03:08:15;74453.88;;;-140.58;100.00
17309;BME280;8772;42.804;23.426;2023-03-23T03:10:50;74457.97;;;-140.58;100.00
17309;BME280;8772;42.804;23.426;2023-03-23T03:13:30;74451.81;;;-140.58;100.00
17309;BME280;8772;42.804;23.426;2023-03-23T03:16:00;74453.88;;;-140.58;100.00
17309;BME280;8772;42.804;23.426;2023-03-23T03:18:33;74437.47;;;-140.58;100.00
17309;BME280;8772;42.804;23.426;2023-03-23T03:21:06;74437.47;;;-140.58;100.00
17309;BME280;8772;42.804;23.426;2023-03-23T03:23:35;74412.84;;;-140.58;100.00
17309;BME280;8772;42.804;23.426;2023-03-23T03:26:03;74400.53;;;-140.58;100.00
17309;BME280;8772;42.804;23.426;2023-03-23T03:28:35;74398.47;;;-140.58;100.00
17309;BME280;8772;42.804;23.426;2023-03-23T03:31:04;74396.41;;;-140.58;100.00
17309;BME280;8772;42.804;23.426;2023-03-23T03:33:33;74390.25;;;-140.58;100.00
17309;BME280;8772;42.804;23.426;2023-03-23T03:36:02;74380.00;;;-140.58;100.00
17309;BME280;8772;42.804;23.426;2023-03-23T03:38:41;74363.59;;;-140.58;100.00
17309;BME280;8772;42.804;23.426;2023-03-23T03:41:08;74359.50;;;-140.58;100.00
17309;BME280;8772;42.804;23.426;2023-03-23T03:43:35;74343.06;;;-140.58;100.00
17309;BME280;8772;42.804;23.426;2023-03-23T03:46:02;74336.91;;;-140.58;100.00
17309;BME280;8772;42.804;23.426;2023-03-23T03:48:29;74343.06;;;-140.58;100.00
17309;BME280;8772;42.804;23.426;2023-03-23T03:50:56;74336.91;;;-140.58;100.00
17309;BME280;8772;42.804;23.426;2023-03-23T03:53:26;74334.88;;;-140.58;100.00
17309;BME280;8772;42.804;23.426;2023-03-23T03:55:54;74343.06;;;-140.58;100.00
17309;BME280;8772;42.804;23.426;2023-03-23T03:58:25;74347.19;;;-140.58;100.00
17309;BME280;8772;42.804;23.426;2023-03-23T04:00:57;74334.88;;;-140.58;100.00
17309;BME280;8772;42.804;23.426;2023-03-23T04:03:24;74326.66;;;-140.58;100.00
17309;BME280;8772;42.804;23.426;2023-03-23T04:05:52;74328.72;;;-140.58;100.00
17309;BME280;8772;42.804;23.426;2023-03-23T04:08:21;74316.41;;;-140.58;100.00
17309;BME280;8772;42.804;23.426;2023-03-23T04:10:47;74306.16;;;-140.58;100.00
17309;BME280;8772;42.804;23.426;2023-03-23T04:13:16;74308.19;;;-140.58;100.00
17309;BME280;8772;42.804;23.426;2023-03-23T04:15:43;74306.16;;;-140.58;100.00
17309;BME280;8772;42.804;23.426;2023-03-23T04:18:10;74291.78;;;-140.58;100.00
17309;BME280;8772;42.804;23.426;2023-03-23T04:20:40;74289.72;;;-140.58;100.00
17309;BME280;8772;42.804;23.426;2023-03-23T04:23:08;74314.34;;;-140.58;100.00
17309;BME280;8772;42.804;23.426;2023-03-23T04:25:35;74326.66;;;-140.58;100.00
17309;BME280;8772;42.804;23.426;2023-03-23T04:28:02;74312.28;;;-140.58;100.00
17309;BME280;8772;42.804;23.426;2023-03-23T04:30:30;74324.59;;;-140.58;100.00
17309;BME280;8772;42.804;23.426;2023-03-23T04:32:57;74318.44;;;-140.58;100.00
17309;BME280;8772;42.804;23.426;2023-03-23T04:35:27;74334.88;;;-140.58;100.00
17309;BME280;8772;42.804;23.426;2023-03-23T04:37:55;74359.50;;;-140.58;100.00
17309;BME280;8772;42.804;23.426;2023-03-23T04:40:23;74359.50;;;-140.58;100.00
17309;BME280;8772;42.804;23.426;2023-03-23T04:42:50;74369.75;;;-140.58;100.00
17309;BME280;8772;42.804;23.426;2023-03-23T04:45:20;74351.28;;;-140.58;100.00
17309;BME280;8772;42.804;23.426;2023-03-23T04:47:49;74343.06;;;-140.58;100.00
17309;BME280;8772;42.804;23.426;2023-03-23T04:50:20;74347.19;;;-140.58;100.00
17309;BME280;8772;42.804;23.426;2023-03-23T04:52:49;74343.06;;;-140.58;100.00
17309;BME280;8772;42.804;23.426;2023-03-23T04:55:17;74334.88;;;-140.58;100.00
17309;BME280;8772;42.804;23.426;2023-03-23T04:57:45;74334.88;;;-140.58;100.00
17309;BME280;8772;42.804;23.426;2023-03-23T05:00:12;74326.66;;;-140.58;100.00
17309;BME280;8772;42.804;23.426;2023-03-23T05:02:42;74322.56;;;-140.58;100.00
17309;BME280;8772;42.804;23.426;2023-03-23T05:05:11;74318.44;;;-140.58;100.00
17309;BME280;8772;42.804;23.426;2023-03-23T05:07:39;74316.41;;;-140.58;100.00
17309;BME280;8772;42.804;23.426;2023-03-23T05:10:07;74314.34;;;-140.58;100.00
17309;BME280;8772;42.804;23.426;2023-03-23T05:12:34;74310.25;;;-140.58;100.00
17309;BME280;8772;42.804;23.426;2023-03-23T05:15:02;74306.16;;;-140.58;100.00
17309;BME280;8772;42.804;23.426;2023-03-23T05:17:28;74310.25;;;-140.58;100.00
17309;BME280;8772;42.804;23.426;2023-03-23T05:19:58;74302.03;;;-140.58;100.00
17309;BME280;8772;42.804;23.426;2023-03-23T05:22:27;74300.00;;;-140.58;100.00
17309;BME280;8772;42.804;23.426;2023-03-23T05:24:57;74306.16;;;-140.58;100.00
17309;BME280;8772;42.804;23.426;2023-03-23T05:27:24;74310.25;;;-140.58;100.00
17309;BME280;8772;42.804;23.426;2023-03-23T05:29:53;74297.94;;;-140.58;100.00
17309;BME280;8772;42.804;23.426;2023-03-23T05:32:20;74293.84;;;-140.58;100.00
17309;BME280;8772;42.804;23.426;2023-03-23T05:34:54;74287.69;;;-140.58;100.00
17309;BME280;8772;42.804;23.426;2023-03-23T05:37:21;74273.31;;;-140.58;100.00
17309;BME280;8772;42.804;23.426;2023-03-23T05:39:50;74273.31;;;-140.58;100.00
17309;BME280;8772;42.804;23.426;2023-03-23T05:42:19;74261.00;;;-140.58;100.00
17309;BME280;8772;42.804;23.426;2023-03-23T05:44:46;74236.38;;;-140.58;100.00
17309;BME280;8772;42.804;23.426;2023-03-23T05:47:13;74228.19;;;-140.58;100.00
17309;BME280;8772;42.804;23.426;2023-03-23T05:49:40;74222.03;;;-140.58;100.00
17309;BME280;8772;42.804;23.426;2023-03-23T05:52:07;74224.06;;;-140.58;100.00
17309;BME280;8772;42.804;23.426;2023-03-23T05:54:34;74228.19;;;-140.58;100.00
17309;BME280;8772;42.804;23.426;2023-03-23T05:57:03;74224.06;;;-140.58;100.00
17309;BME280;8772;42.804;23.426;2023-03-23T05:59:31;74215.88;;;-140.58;100.00
17309;BME280;8772;42.804;23.426;2023-03-23T06:01:58;74203.56;;;-140.58;100.00
17309;BME280;8772;42.804;23.426;2023-03-23T06:04:26;74193.31;;;-140.58;100.00
17309;BME280;8772;42.804;23.426;2023-03-23T06:06:53;74187.16;;;-140.58;100.00
17309;BME280;8772;42.804;23.426;2023-03-23T06:09:20;74187.16;;;-140.58;100.00
17309;BME280;8772;42.804;23.426;2023-03-23T06:11:49;74174.84;;;-140.58;100.00
17309;BME280;8772;42.804;23.426;2023-03-23T06:14:17;74170.72;;;-140.58;100.00
17309;BME280;8772;42.804;23.426;2023-03-23T06:16:44;74158.41;;;-140.58;100.00
17309;BME280;8772;42.804;23.426;2023-03-23T06:19:11;74152.28;;;-140.58;100.00
17309;BME280;8772;42.804;23.426;2023-03-23T06:21:43;74148.16;;;-140.58;100.00
17309;BME280;8772;42.804;23.426;2023-03-23T06:24:10;74127.66;;;-140.58;100.00
17309;BME280;8772;42.804;23.426;2023-03-23T06:26:38;74119.44;;;-140.58;100.00
17309;BME280;8772;42.804;23.426;2023-03-23T06:29:06;74115.34;;;-140.58;100.00
17309;BME280;8772;42.804;23.426;2023-03-23T06:31:40;74125.59;;;-140.58;100.00
17309;BME280;8772;42.804;23.426;2023-03-23T06:34:08;74125.59;;;-140.58;100.00
17309;BME280;8772;42.804;23.426;2023-03-23T06:36:35;74129.69;;;-140.58;100.00
17309;BME280;8772;42.804;23.426;2023-03-23T06:39:03;74123.53;;;-140.58;100.00
17309;BME280;8772;42.804;23.426;2023-03-23T06:41:31;74113.28;;;-140.58;100.00
17309;BME280;8772;42.804;23.426;2023-03-23T06:43:58;74103.03;;;-140.58;100.00
17309;BME280;8772;42.804;23.426;2023-03-23T06:46:26;74100.97;;;-140.58;100.00
17309;BME280;8772;42.804;23.426;2023-03-23T06:48:54;74088.66;;;-140.58;100.00
17309;BME280;8772;42.804;23.426;2023-03-23T06:51:22;74096.88;;;-140.58;100.00
17309;BME280;8772;42.804;23.426;2023-03-23T06:53:49;74072.25;;;-140.58;100.00
17309;BME280;8772;42.804;23.426;2023-03-23T06:56:16;74080.47;;;-140.58;100.00
17309;BME280;8772;42.804;23.426;2023-03-23T06:58:43;74057.91;;;-140.58;100.00
17309;BME280;8772;42.804;23.426;2023-03-23T07:01:11;74059.94;;;-140.58;100.00
17309;BME280;8772;42.804;23.426;2023-03-23T07:03:40;74049.69;;;-140.58;100.00
17309;BME280;8772;42.804;23.426;2023-03-23T07:06:09;74043.53;;;-140.58;100.00
17309;BME280;8772;42.804;23.426;2023-03-23T07:08:37;74035.31;;;-140.58;100.00
17309;BME280;8772;42.804;23.426;2023-03-23T07:11:04;74031.22;;;-140.58;100.00
17309;BME280;8772;42.804;23.426;2023-03-23T07:13:31;74014.81;;;-140.58;100.00
17309;BME280;8772;42.804;23.426;2023-03-23T07:15:58;73994.28;;;-140.58;100.00
17309;BME280;8772;42.804;23.426;2023-03-23T07:18:25;73969.69;;;-140.58;100.00
17309;BME280;8772;42.804;23.426;2023-03-23T07:20:53;73949.16;;;-140.58;100.00
17309;BME280;8772;42.804;23.426;2023-03-23T07:23:21;73957.38;;;-140.58;100.00
17309;BME280;8772;42.804;23.426;2023-03-23T07:25:48;73949.16;;;-140.58;100.00
17309;BME280;8772;42.804;23.426;2023-03-23T07:28:15;73916.34;;;-140.58;100.00
17309;BME280;8772;42.804;23.426;2023-03-23T07:30:42;73895.81;;;-140.58;100.00
17309;BME280;8772;42.804;23.426;2023-03-23T07:33:09;73871.19;;;-140.58;100.00
17309;BME280;8772;42.804;23.426;2023-03-23T07:35:37;73858.91;;;-140.58;100.00
17309;BME280;8772;42.804;23.426;2023-03-23T07:38:05;73838.38;;;-140.58;100.00
17309;BME280;8772;42.804;23.426;2023-03-23T07:40:33;73817.88;;;-140.58;100.00
17309;BME280;8772;42.804;23.426;2023-03-23T07:43:01;73801.44;;;-140.58;100.00
17309;BME280;8772;42.804;23.426;2023-03-23T07:45:29;73776.84;;;-140.58;100.00
17309;BME280;8772;42.804;23.426;2023-03-23T07:47:56;73756.31;;;-140.58;100.00
17309;BME280;8772;42.804;23.426;2023-03-23T07:50:24;73754.28;;;-140.58;100.00
17309;BME280;8772;42.804;23.426;2023-03-23T07:52:53;73739.91;;;-140.58;100.00
17309;BME280;8772;42.804;23.426;2023-03-23T07:55:20;73721.44;;;-140.58;100.00
17309;BME280;8772;42.804;23.426;2023-03-23T07:57:52;73698.88;;;-140.58;100.00
17309;BME280;8772;42.804;23.426;2023-03-23T08:00:21;73682.47;;;-140.58;100.00
17309;BME280;8772;42.804;23.426;2023-03-23T08:02:50;73666.06;;;-140.58;100.00
17309;BME280;8772;42.804;23.426;2023-03-23T08:05:18;73655.81;;;-140.58;100.00
17309;BME280;8772;42.804;23.426;2023-03-23T08:07:46;73627.09;;;-140.58;100.00
17309;BME280;8772;42.804;23.426;2023-03-23T08:10:14;73612.72;;;-140.58;100.00
17309;BME280;8772;42.804;23.426;2023-03-23T08:12:42;73596.31;;;-140.58;100.00
17309;BME280;8772;42.804;23.426;2023-03-23T08:15:11;73586.06;;;-140.58;100.00
17309;BME280;8772;42.804;23.426;2023-03-23T08:17:40;73571.69;;;-140.58;100.00
17309;BME280;8772;42.804;23.426;2023-03-23T08:20:09;73547.09;;;-140.58;100.00
17309;BME280;8772;42.804;23.426;2023-03-23T08:22:39;73518.38;;;-140.58;100.00
17309;BME280;8772;42.804;23.426;2023-03-23T08:25:09;73499.91;;;-140.58;100.00
17309;BME280;8772;42.804;23.426;2023-03-23T08:27:37;73477.34;;;-140.58;100.00
17309;BME280;8772;42.804;23.426;2023-03-23T08:30:13;73462.97;;;-140.58;100.00
17309;BME280;8772;42.804;23.426;2023-03-23T08:32:41;73415.81;;;-140.58;100.00
17309;BME280;8772;42.804;23.426;2023-03-23T08:35:09;73399.41;;;-140.58;100.00
17309;BME280;8772;42.804;23.426;2023-03-23T08:37:37;73370.69;;;-140.58;100.00
17309;BME280;8772;42.804;23.426;2023-03-23T08:40:05;73358.38;;;-140.58;100.00
17309;BME280;8772;42.804;23.426;2023-03-23T08:42:34;73327.59;;;-140.58;100.00
17309;BME280;8772;42.804;23.426;2023-03-23T08:45:02;73311.19;;;-140.58;100.00
17309;BME280;8772;42.804;23.426;2023-03-23T08:47:30;73300.94;;;-140.58;100.00
17309;BME280;8772;42.804;23.426;2023-03-23T08:49:57;73337.84;;;-140.58;100.00
17309;BME280;8772;42.804;23.426;2023-03-23T08:52:24;73313.25;;;-140.58;100.00
17309;BME280;8772;42.804;23.426;2023-03-23T08:54:51;73296.84;;;-140.58;100.00
17309;BME280;8772;42.804;23.426;2023-03-23T08:57:18;73296.84;;;-140.58;100.00
17309;BME280;8772;42.804;23.426;2023-03-23T08:59:45;73274.28;;;-140.58;100.00
17309;BME280;8772;42.804;23.426;2023-03-23T09:02:12;73282.47;;;-140.58;100.00
17309;BME280;8772;42.804;23.426;2023-03-23T09:04:40;73284.53;;;-140.58;100.00
17309;BME280;8772;42.804;23.426;2023-03-23T09:07:08;73272.22;;;-140.58;100.00
17309;BME280;8772;42.804;23.426;2023-03-23T09:09:36;73317.34;;;-140.58;100.00
17309;BME280;8772;42.804;23.426;2023-03-23T09:12:05;73307.09;;;-140.58;100.00
17309;BME280;8772;42.804;23.426;2023-03-23T09:14:32;73305.03;;;-140.58;100.00
17309;BME280;8772;42.804;23.426;2023-03-23T09:17:00;73284.53;;;-140.58;100.00
17309;BME280;8772;42.804;23.426;2023-03-23T09:19:28;73284.53;;;-140.58;100.00
17309;BME280;8772;42.804;23.426;2023-03-23T09:21:56;73268.13;;;-140.58;100.00
17309;BME280;8772;42.804;23.426;2023-03-23T09:24:23;73239.41;;;-140.58;100.00
17309;BME280;8772;42.804;23.426;2023-03-23T09:26:50;73218.91;;;-140.58;100.00
17309;BME280;8772;42.804;23.426;2023-03-23T09:29:18;73188.13;;;-140.58;100.00
17309;BME280;8772;42.804;23.426;2023-03-23T09:31:46;73210.69;;;-140.58;57.60
17309;BME280;8772;42.804;23.426;2023-03-23T09:34:13;73239.41;;;-140.58;60.68
17309;BME280;8772;42.804;23.426;2023-03-23T09:36:40;73259.91;;;-140.58;59.28
17309;BME280;8772;42.804;23.426;2023-03-23T09:39:10;73214.78;;;-140.58;57.82
17309;BME280;8772;42.804;23.426;2023-03-23T09:42:00;73206.59;;;-140.58;59.82
17309;BME280;8772;42.804;23.426;2023-03-23T09:44:38;73181.97;;;-140.58;59.22
17309;BME280;8772;42.804;23.426;2023-03-23T09:47:15;73145.06;;;-140.58;59.88
17309;BME280;8772;42.804;23.426;2023-03-23T09:49:50;73231.19;;;-140.58;56.40
17309;BME280;8772;42.804;23.426;2023-03-23T09:52:19;73264.03;;;-140.58;57.63
17309;BME280;8772;42.804;23.426;2023-03-23T09:54:49;73255.81;;;-140.58;56.46
17309;BME280;8772;42.804;23.426;2023-03-23T09:57:22;73227.09;;;-140.58;57.41
17309;BME280;8772;42.804;23.426;2023-03-23T09:59:55;73202.47;;;-140.58;56.55
17309;BME280;8772;42.804;23.426;2023-03-23T10:02:28;73255.81;;;-140.58;58.47
17309;BME280;8772;42.804;23.426;2023-03-23T10:05:07;73227.09;;;-140.58;57.16
17309;BME280;8772;42.804;23.426;2023-03-23T10:07:42;73259.91;;;-140.58;56.23
17309;BME280;8772;42.804;23.426;2023-03-23T10:10:13;73243.50;;;-140.58;55.90
17309;BME280;8772;42.804;23.426;2023-03-23T10:12:44;73198.38;;;-140.58;58.33
17309;BME280;8772;42.804;23.426;2023-03-23T10:15:15;73177.88;;;-140.58;57.93
17309;BME280;8772;42.804;23.426;2023-03-23T10:17:47;73206.59;;;-140.58;56.97
17309;BME280;8772;42.804;23.426;2023-03-23T10:20:36;73214.78;;;-140.58;57.20
17309;BME280;8772;42.804;23.426;2023-03-23T10:23:13;73206.59;;;-140.58;56.40
17309;BME280;8772;42.804;23.426;2023-03-23T10:25:48;73181.97;;;-140.58;56.67
17309;BME280;8772;42.804;23.426;2023-03-23T10:28:19;73165.56;;;-140.58;55.35
17309;BME280;8772;42.804;23.426;2023-03-23T10:30:50;73153.25;;;-140.58;55.17
17309;BME280;8772;42.804;23.426;2023-03-23T10:33:22;73165.56;;;-140.58;54.81
17309;BME280;8772;42.804;23.426;2023-03-23T10:35:54;73140.94;;;-140.58;55.24
17309;BME280;8772;42.804;23.426;2023-03-23T10:38:29;73091.72;;;-140.58;55.80
17309;BME280;8772;42.804;23.426;2023-03-23T10:41:02;73089.69;;;-140.58;52.67
17309;BME280;8772;42.804;23.426;2023-03-23T10:43:31;73038.41;;;-140.58;54.05
17309;BME280;8772;42.804;23.426;2023-03-23T10:46:01;73050.72;;;-140.58;49.29
17309;BME280;8772;42.804;23.426;2023-03-23T10:48:30;73017.91;;;-140.58;51.89
17309;BME280;8772;42.804;23.426;2023-03-23T10:51:00;72997.38;;;-140.58;51.34
17309;BME280;8772;42.804;23.426;2023-03-23T10:53:32;72970.72;;;-140.58;49.09
17309;BME280;8772;42.804;23.426;2023-03-23T10:56:01;72966.63;;;-140.58;51.90
17309;BME280;8772;42.804;23.426;2023-03-23T10:58:29;72958.41;;;-140.58;48.42
17309;BME280;8772;42.804;23.426;2023-03-23T11:00:57;72937.91;;;-140.58;48.80
17309;BME280;8772;42.804;23.426;2023-03-23T11:03:41;72948.16;;;-140.58;47.83
17309;BME280;8772;42.804;23.426;2023-03-23T11:06:20;72948.16;;;-140.58;47.48
17309;BME280;8772;42.804;23.426;2023-03-23T11:08:51;72948.16;;;-140.58;47.65
17309;BME280;8772;42.804;23.426;2023-03-23T11:11:25;72960.47;;;-140.58;46.43
17309;BME280;8772;42.804;23.426;2023-03-23T11:13:57;72911.25;;;-140.58;48.06
17309;BME280;8772;42.804;23.426;2023-03-23T11:16:26;72859.97;;;-140.58;44.94
17309;BME280;8772;42.804;23.426;2023-03-23T11:19:11;72870.22;;;-140.58;45.99
17309;BME280;8772;42.804;23.426;2023-03-23T11:21:47;72833.31;;;-140.58;45.46
17309;BME280;8772;42.804;23.426;2023-03-23T11:24:16;72825.09;;;-140.58;44.02
17309;BME280;8772;42.804;23.426;2023-03-23T11:26:45;72792.28;;;-140.58;45.18
17309;BME280;8772;42.804;23.426;2023-03-23T11:29:15;72794.34;;;-140.58;43.40
17309;BME280;8772;42.804;23.426;2023-03-23T11:31:45;72759.47;;;-140.58;45.04
17309;BME280;8772;42.804;23.426;2023-03-23T11:34:16;72755.38;;;-140.58;42.25
17309;BME280;8772;42.804;23.426;2023-03-23T11:36:55;72767.69;;;-140.58;39.48
17309;BME280;8772;42.804;23.426;2023-03-23T11:39:32;72866.13;;;-140.58;41.77
17309;BME280;8772;42.804;23.426;2023-03-23T11:42:13;72818.94;;;-140.58;45.06
17309;BME280;8772;42.804;23.426;2023-03-23T11:44:42;72804.59;;;-140.58;43.12
17309;BME280;8772;42.804;23.426;2023-03-23T11:47:22;72806.66;;;-140.58;44.91
17309;BME280;8772;42.804;23.426;2023-03-23T11:49:57;72786.13;;;-140.58;42.47
17309;BME280;8772;42.804;23.426;2023-03-23T11:52:33;72796.41;;;-140.58;43.44
17309;BME280;8772;42.804;23.426;2023-03-23T11:55:10;72808.69;;;-140.58;43.08
17309;BME280;8772;42.804;23.426;2023-03-23T11:57:39;72808.69;;;-140.58;43.17
17309;BME280;8772;42.804;23.426;2023-03-23T12:00:13;72841.50;;;-140.58;43.77
17309;BME280;8772;42.804;23.426;2023-03-23T12:05:49;72792.28;;;-140.58;42.79
17309;BME280;8772;42.804;23.426;2023-03-23T12:08:26;72780.00;;;-140.58;45.21
17309;BME280;8772;42.804;23.426;2023-03-23T12:11:01;72771.78;;;-140.58;44.12
17309;BME280;8772;42.804;23.426;2023-03-23T12:13:45;72720.50;;;-140.58;44.56
17309;BME280;8772;42.804;23.426;2023-03-23T12:16:27;72683.59;;;-140.58;43.33
17309;BME280;8772;42.804;23.426;2023-03-23T12:19:01;72656.94;;;-140.58;43.15
17309;BME280;8772;42.804;23.426;2023-03-23T12:21:36;72659.00;;;-140.58;42.38
17309;BME280;8772;42.804;23.426;2023-03-23T12:24:12;72652.84;;;-140.58;41.24
17309;BME280;8772;42.804;23.426;2023-03-23T12:26:47;72624.13;;;-140.58;40.52
17309;BME280;8772;42.804;23.426;2023-03-23T12:32:33;72671.28;;;-140.58;38.45
17309;BME280;8772;42.804;23.426;2023-03-23T12:35:14;72646.69;;;-140.58;39.79
17309;BME280;8772;42.804;23.426;2023-03-23T12:37:53;72601.56;;;-140.58;39.82
17309;BME280;8772;42.804;23.426;2023-03-23T12:40:37;72574.91;;;-140.58;39.85
17309;BME280;8772;42.804;23.426;2023-03-23T12:43:15;72533.91;;;-140.58;39.88
17309;BME280;8772;42.804;23.426;2023-03-23T12:46:00;72523.66;;;-140.58;39.82
17309;BME280;8772;42.804;23.426;2023-03-23T12:48:34;72484.69;;;-140.58;38.01
17309;BME280;8772;42.804;23.426;2023-03-23T12:51:11;72462.13;;;-140.58;37.00
17309;BME280;8772;42.804;23.426;2023-03-23T12:53:48;72486.72;;;-140.58;37.01
17309;BME280;8772;42.804;23.426;2023-03-23T12:56:26;72507.25;;;-140.58;38.78
17309;BME280;8772;42.804;23.426;2023-03-23T12:59:01;72525.69;;;-140.58;38.82
17309;BME280;8772;42.804;23.426;2023-03-23T13:01:35;72533.91;;;-140.58;39.53
17309;BME280;8772;42.804;23.426;2023-03-23T13:04:07;72513.38;;;-140.58;38.24